sensor_id;sensor_type;location;lat;lon;timestamp;P1;durP1;ratioP1;P2;durP2;ratioP2
40695;SDS011;40425;51.102;17.208;2023-03-02T00:03:56;125.57;;;60.00;;
40695;SDS011;40425;51.102;17.208;2023-03-02T00:08:59;133.07;;;64.50;;
40695;SDS011;40425;51.102;17.208;2023-03-02T00:14:01;274.23;;;116.13;;
40695;SDS011;40425;51.102;17.208;2023-03-02T00:19:02;241.80;;;104.77;;
40695;SDS011;40425;51.102;17.208;2023-03-02T00:24:03;211.73;;;100.10;;
40695;SDS011;40425;51.102;17.208;2023-03-02T00:29:04;234.13;;;101.50;;
40695;SDS011;40425;51.102;17.208;2023-03-02T00:34:05;202.07;;;92.53;;
40695;SDS011;40425;51.102;17.208;2023-03-02T00:39:06;170.33;;;77.87;;
40695;SDS011;40425;51.102;17.208;2023-03-02T00:44:07;144.30;;;71.00;;
40695;SDS011;40425;51.102;17.208;2023-03-02T00:49:08;163.50;;;76.70;;
40695;SDS011;40425;51.102;17.208;2023-03-02T00:54:08;164.17;;;72.73;;
40695;SDS011;40425;51.102;17.208;2023-03-02T00:59:10;148.70;;;70.33;;
40695;SDS011;40425;51.102;17.208;2023-03-02T01:04:35;141.47;;;68.63;;
40695;SDS011;40425;51.102;17.208;2023-03-02T01:09:38;139.70;;;68.77;;
40695;SDS011;40425;51.102;17.208;2023-03-02T01:14:42;152.47;;;75.17;;
40695;SDS011;40425;51.102;17.208;2023-03-02T01:19:44;159.20;;;76.77;;
40695;SDS011;40425;51.102;17.208;2023-03-02T01:24:45;165.60;;;80.50;;
40695;SDS011;40425;51.102;17.208;2023-03-02T01:29:46;223.20;;;107.30;;
40695;SDS011;40425;51.102;17.208;2023-03-02T01:34:47;179.00;;;85.67;;
40695;SDS011;40425;51.102;17.208;2023-03-02T01:39:48;144.10;;;68.40;;
40695;SDS011;40425;51.102;17.208;2023-03-02T01:44:51;203.27;;;93.30;;
40695;SDS011;40425;51.102;17.208;2023-03-02T01:50:04;169.90;;;82.67;;
40695;SDS011;40425;51.102;17.208;2023-03-02T02:00:21;141.80;;;65.30;;
40695;SDS011;40425;51.102;17.208;2023-03-02T02:05:26;144.43;;;67.80;;
40695;SDS011;40425;51.102;17.208;2023-03-02T02:10:27;149.67;;;67.77;;
40695;SDS011;40425;51.102;17.208;2023-03-02T02:15:29;155.73;;;72.87;;
40695;SDS011;40425;51.102;17.208;2023-03-02T02:31:02;164.40;;;74.37;;
40695;SDS011;40425;51.102;17.208;2023-03-02T02:36:09;162.27;;;78.37;;
40695;SDS011;40425;51.102;17.208;2023-03-02T02:41:23;154.45;;;69.20;;
40695;SDS011;40425;51.102;17.208;2023-03-02T02:46:28;165.13;;;79.75;;
40695;SDS011;40425;51.102;17.208;2023-03-02T02:51:31;179.00;;;85.47;;
40695;SDS011;40425;51.102;17.208;2023-03-02T02:56:35;190.00;;;84.60;;
40695;SDS011;40425;51.102;17.208;2023-03-02T03:01:37;166.67;;;75.07;;
40695;SDS011;40425;51.102;17.208;2023-03-02T03:06:38;156.20;;;73.33;;
40695;SDS011;40425;51.102;17.208;2023-03-02T03:12:16;144.48;;;65.03;;
40695;SDS011;40425;51.102;17.208;2023-03-02T03:17:21;137.20;;;60.90;;
40695;SDS011;40425;51.102;17.208;2023-03-02T03:22:22;137.67;;;61.67;;
40695;SDS011;40425;51.102;17.208;2023-03-02T03:27:22;121.50;;;56.20;;
40695;SDS011;40425;51.102;17.208;2023-03-02T03:32:23;126.27;;;55.90;;
40695;SDS011;40425;51.102;17.208;2023-03-02T03:37:24;114.23;;;54.53;;
40695;SDS011;40425;51.102;17.208;2023-03-02T03:42:25;118.30;;;54.80;;
40695;SDS011;40425;51.102;17.208;2023-03-02T03:47:26;110.80;;;55.13;;
40695;SDS011;40425;51.102;17.208;2023-03-02T03:52:27;119.27;;;55.87;;
40695;SDS011;40425;51.102;17.208;2023-03-02T03:57:31;134.97;;;63.20;;
40695;SDS011;40425;51.102;17.208;2023-03-02T04:02:32;133.33;;;61.20;;
40695;SDS011;40425;51.102;17.208;2023-03-02T04:07:33;129.90;;;59.50;;
40695;SDS011;40425;51.102;17.208;2023-03-02T04:12:36;137.87;;;61.33;;
40695;SDS011;40425;51.102;17.208;2023-03-02T04:17:39;111.33;;;52.17;;
40695;SDS011;40425;51.102;17.208;2023-03-02T04:22:43;125.23;;;56.43;;
40695;SDS011;40425;51.102;17.208;2023-03-02T04:27:45;144.30;;;60.23;;
40695;SDS011;40425;51.102;17.208;2023-03-02T04:32:48;133.17;;;61.90;;
40695;SDS011;40425;51.102;17.208;2023-03-02T04:37:49;169.83;;;73.07;;
40695;SDS011;40425;51.102;17.208;2023-03-02T04:42:50;146.30;;;67.93;;
40695;SDS011;40425;51.102;17.208;2023-03-02T04:47:51;137.43;;;61.27;;
40695;SDS011;40425;51.102;17.208;2023-03-02T04:52:52;139.50;;;63.57;;
40695;SDS011;40425;51.102;17.208;2023-03-02T04:57:53;134.90;;;61.13;;
40695;SDS011;40425;51.102;17.208;2023-03-02T05:02:53;135.53;;;58.13;;
40695;SDS011;40425;51.102;17.208;2023-03-02T05:07:55;134.73;;;60.23;;
40695;SDS011;40425;51.102;17.208;2023-03-02T05:12:57;130.73;;;56.20;;
40695;SDS011;40425;51.102;17.208;2023-03-02T05:18:02;139.50;;;62.50;;
40695;SDS011;40425;51.102;17.208;2023-03-02T05:23:06;150.00;;;62.03;;
40695;SDS011;40425;51.102;17.208;2023-03-02T05:28:09;130.87;;;59.57;;
40695;SDS011;40425;51.102;17.208;2023-03-02T05:33:09;124.20;;;58.03;;
40695;SDS011;40425;51.102;17.208;2023-03-02T05:38:10;125.13;;;56.60;;
40695;SDS011;40425;51.102;17.208;2023-03-02T05:43:13;173.73;;;75.93;;
40695;SDS011;40425;51.102;17.208;2023-03-02T05:48:17;173.80;;;78.37;;
40695;SDS011;40425;51.102;17.208;2023-03-02T05:53:18;138.07;;;60.87;;
40695;SDS011;40425;51.102;17.208;2023-03-02T05:58:19;129.30;;;61.60;;
40695;SDS011;40425;51.102;17.208;2023-03-02T06:03:20;124.77;;;54.50;;
40695;SDS011;40425;51.102;17.208;2023-03-02T06:08:21;128.30;;;59.80;;
40695;SDS011;40425;51.102;17.208;2023-03-02T06:13:22;127.90;;;57.87;;
40695;SDS011;40425;51.102;17.208;2023-03-02T06:18:22;116.77;;;54.47;;
40695;SDS011;40425;51.102;17.208;2023-03-02T06:23:23;115.40;;;51.97;;
40695;SDS011;40425;51.102;17.208;2023-03-02T06:28:24;110.37;;;50.20;;
40695;SDS011;40425;51.102;17.208;2023-03-02T06:33:25;97.00;;;46.50;;
40695;SDS011;40425;51.102;17.208;2023-03-02T06:38:26;101.57;;;48.67;;
40695;SDS011;40425;51.102;17.208;2023-03-02T06:43:27;106.87;;;50.37;;
40695;SDS011;40425;51.102;17.208;2023-03-02T06:48:28;125.90;;;58.97;;
40695;SDS011;40425;51.102;17.208;2023-03-02T06:53:29;134.03;;;63.03;;
40695;SDS011;40425;51.102;17.208;2023-03-02T06:58:30;156.50;;;72.93;;
40695;SDS011;40425;51.102;17.208;2023-03-02T07:03:31;161.07;;;72.50;;
40695;SDS011;40425;51.102;17.208;2023-03-02T07:08:32;142.17;;;68.93;;
40695;SDS011;40425;51.102;17.208;2023-03-02T07:13:33;146.87;;;69.43;;
40695;SDS011;40425;51.102;17.208;2023-03-02T07:18:34;129.07;;;60.93;;
40695;SDS011;40425;51.102;17.208;2023-03-02T07:23:35;129.77;;;62.60;;
40695;SDS011;40425;51.102;17.208;2023-03-02T07:28:36;116.33;;;57.77;;
40695;SDS011;40425;51.102;17.208;2023-03-02T07:33:41;114.30;;;55.63;;
40695;SDS011;40425;51.102;17.208;2023-03-02T07:38:41;117.80;;;56.03;;
40695;SDS011;40425;51.102;17.208;2023-03-02T07:43:42;112.17;;;56.57;;
40695;SDS011;40425;51.102;17.208;2023-03-02T07:48:43;115.73;;;56.60;;
40695;SDS011;40425;51.102;17.208;2023-03-02T07:53:44;109.73;;;53.60;;
40695;SDS011;40425;51.102;17.208;2023-03-02T07:58:45;115.87;;;56.93;;
40695;SDS011;40425;51.102;17.208;2023-03-02T08:03:46;113.90;;;56.87;;
40695;SDS011;40425;51.102;17.208;2023-03-02T08:08:47;109.60;;;52.47;;
40695;SDS011;40425;51.102;17.208;2023-03-02T08:13:48;109.53;;;53.97;;
40695;SDS011;40425;51.102;17.208;2023-03-02T08:18:49;117.17;;;55.70;;
40695;SDS011;40425;51.102;17.208;2023-03-02T08:23:50;113.00;;;57.37;;
40695;SDS011;40425;51.102;17.208;2023-03-02T08:28:51;115.63;;;55.60;;
40695;SDS011;40425;51.102;17.208;2023-03-02T08:33:52;101.00;;;51.77;;
40695;SDS011;40425;51.102;17.208;2023-03-02T08:38:53;108.57;;;52.63;;
40695;SDS011;40425;51.102;17.208;2023-03-02T08:43:55;105.43;;;50.30;;
40695;SDS011;40425;51.102;17.208;2023-03-02T08:48:56;100.80;;;50.90;;
40695;SDS011;40425;51.102;17.208;2023-03-02T08:53:57;100.27;;;51.80;;
40695;SDS011;40425;51.102;17.208;2023-03-02T08:58:59;97.03;;;51.10;;
40695;SDS011;40425;51.102;17.208;2023-03-02T09:04:03;96.60;;;49.60;;
40695;SDS011;40425;51.102;17.208;2023-03-02T09:09:06;96.83;;;49.47;;
40695;SDS011;40425;51.102;17.208;2023-03-02T09:14:08;86.83;;;44.93;;
40695;SDS011;40425;51.102;17.208;2023-03-02T09:19:09;86.43;;;39.70;;
40695;SDS011;40425;51.102;17.208;2023-03-02T09:24:12;65.27;;;34.03;;
40695;SDS011;40425;51.102;17.208;2023-03-02T09:29:12;77.03;;;38.53;;
40695;SDS011;40425;51.102;17.208;2023-03-02T09:34:13;73.00;;;37.53;;
40695;SDS011;40425;51.102;17.208;2023-03-02T09:39:14;75.93;;;37.33;;
40695;SDS011;40425;51.102;17.208;2023-03-02T09:49:38;68.20;;;35.07;;
40695;SDS011;40425;51.102;17.208;2023-03-02T09:55:14;66.73;;;34.17;;
40695;SDS011;40425;51.102;17.208;2023-03-02T10:00:32;59.00;;;30.67;;
40695;SDS011;40425;51.102;17.208;2023-03-02T10:05:40;46.30;;;26.07;;
40695;SDS011;40425;51.102;17.208;2023-03-02T10:21:40;39.47;;;21.33;;
40695;SDS011;40425;51.102;17.208;2023-03-02T10:26:46;43.47;;;22.23;;
40695;SDS011;40425;51.102;17.208;2023-03-02T10:31:58;34.27;;;18.37;;
40695;SDS011;40425;51.102;17.208;2023-03-02T10:37:24;34.10;;;18.10;;
40695;SDS011;40425;51.102;17.208;2023-03-02T10:42:35;36.92;;;18.58;;
40695;SDS011;40425;51.102;17.208;2023-03-02T10:47:39;36.27;;;19.20;;
40695;SDS011;40425;51.102;17.208;2023-03-02T10:52:47;33.53;;;18.27;;
40695;SDS011;40425;51.102;17.208;2023-03-02T10:57:59;34.70;;;19.57;;
40695;SDS011;40425;51.102;17.208;2023-03-02T11:03:05;36.00;;;20.47;;
40695;SDS011;40425;51.102;17.208;2023-03-02T11:08:20;36.27;;;19.50;;
40695;SDS011;40425;51.102;17.208;2023-03-02T11:13:25;40.10;;;21.33;;
40695;SDS011;40425;51.102;17.208;2023-03-02T11:18:37;45.40;;;22.67;;
40695;SDS011;40425;51.102;17.208;2023-03-02T11:28:58;47.73;;;24.90;;
40695;SDS011;40425;51.102;17.208;2023-03-02T11:34:05;43.83;;;24.23;;
40695;SDS011;40425;51.102;17.208;2023-03-02T11:39:22;44.20;;;24.63;;
40695;SDS011;40425;51.102;17.208;2023-03-02T11:44:28;43.93;;;25.20;;
40695;SDS011;40425;51.102;17.208;2023-03-02T11:49:38;40.47;;;23.43;;
40695;SDS011;40425;51.102;17.208;2023-03-02T11:55:02;39.33;;;22.93;;
40695;SDS011;40425;51.102;17.208;2023-03-02T12:05:37;39.53;;;21.07;;
40695;SDS011;40425;51.102;17.208;2023-03-02T12:10:40;38.47;;;21.30;;
40695;SDS011;40425;51.102;17.208;2023-03-02T12:15:46;34.03;;;18.60;;
40695;SDS011;40425;51.102;17.208;2023-03-02T12:20:59;35.10;;;20.03;;
40695;SDS011;40425;51.102;17.208;2023-03-02T12:26:23;35.30;;;18.30;;
40695;SDS011;40425;51.102;17.208;2023-03-02T12:31:40;33.23;;;19.40;;
40695;SDS011;40425;51.102;17.208;2023-03-02T12:36:41;32.00;;;18.07;;
40695;SDS011;40425;51.102;17.208;2023-03-02T12:41:53;33.50;;;17.77;;
40695;SDS011;40425;51.102;17.208;2023-03-02T12:47:17;35.10;;;19.63;;
40695;SDS011;40425;51.102;17.208;2023-03-02T12:57:29;37.07;;;19.83;;
40695;SDS011;40425;51.102;17.208;2023-03-02T13:02:43;34.07;;;18.60;;
40695;SDS011;40425;51.102;17.208;2023-03-02T13:13:33;35.13;;;18.77;;
40695;SDS011;40425;51.102;17.208;2023-03-02T13:18:41;28.90;;;16.30;;
40695;SDS011;40425;51.102;17.208;2023-03-02T13:23:44;28.93;;;16.60;;
40695;SDS011;40425;51.102;17.208;2023-03-02T13:28:47;25.83;;;13.53;;
40695;SDS011;40425;51.102;17.208;2023-03-02T13:33:59;19.40;;;10.63;;
40695;SDS011;40425;51.102;17.208;2023-03-02T13:39:00;25.97;;;12.93;;
40695;SDS011;40425;51.102;17.208;2023-03-02T13:44:16;18.57;;;11.93;;
40695;SDS011;40425;51.102;17.208;2023-03-02T13:49:52;20.33;;;10.50;;
40695;SDS011;40425;51.102;17.208;2023-03-02T13:54:46;19.73;;;10.73;;
40695;SDS011;40425;51.102;17.208;2023-03-02T13:59:47;16.77;;;10.17;;
40695;SDS011;40425;51.102;17.208;2023-03-02T14:04:48;17.20;;;10.80;;
40695;SDS011;40425;51.102;17.208;2023-03-02T14:09:49;17.83;;;10.80;;
40695;SDS011;40425;51.102;17.208;2023-03-02T14:14:50;20.73;;;11.47;;
40695;SDS011;40425;51.102;17.208;2023-03-02T14:19:52;21.00;;;11.50;;
40695;SDS011;40425;51.102;17.208;2023-03-02T14:24:54;18.60;;;10.47;;
40695;SDS011;40425;51.102;17.208;2023-03-02T14:29:55;20.83;;;12.30;;
40695;SDS011;40425;51.102;17.208;2023-03-02T14:34:56;15.37;;;9.37;;
40695;SDS011;40425;51.102;17.208;2023-03-02T14:39:57;15.17;;;10.17;;
40695;SDS011;40425;51.102;17.208;2023-03-02T14:44:58;17.43;;;9.93;;
40695;SDS011;40425;51.102;17.208;2023-03-02T14:49:59;18.37;;;9.57;;
40695;SDS011;40425;51.102;17.208;2023-03-02T14:55:00;16.33;;;10.10;;
40695;SDS011;40425;51.102;17.208;2023-03-02T15:00:05;14.90;;;9.57;;
40695;SDS011;40425;51.102;17.208;2023-03-02T15:05:11;19.63;;;11.30;;
40695;SDS011;40425;51.102;17.208;2023-03-02T15:10:13;24.00;;;11.23;;
40695;SDS011;40425;51.102;17.208;2023-03-02T15:15:16;20.63;;;12.03;;
40695;SDS011;40425;51.102;17.208;2023-03-02T15:20:17;28.23;;;16.57;;
40695;SDS011;40425;51.102;17.208;2023-03-02T15:25:18;25.93;;;16.63;;
40695;SDS011;40425;51.102;17.208;2023-03-02T15:30:19;30.13;;;17.23;;
40695;SDS011;40425;51.102;17.208;2023-03-02T15:35:20;32.67;;;16.83;;
40695;SDS011;40425;51.102;17.208;2023-03-02T15:40:21;28.67;;;17.30;;
40695;SDS011;40425;51.102;17.208;2023-03-02T15:45:25;30.13;;;17.43;;
40695;SDS011;40425;51.102;17.208;2023-03-02T15:50:26;29.93;;;18.07;;
40695;SDS011;40425;51.102;17.208;2023-03-02T15:55:28;32.00;;;18.67;;
40695;SDS011;40425;51.102;17.208;2023-03-02T16:00:31;43.50;;;24.10;;
40695;SDS011;40425;51.102;17.208;2023-03-02T16:05:34;56.60;;;31.97;;
40695;SDS011;40425;51.102;17.208;2023-03-02T16:10:35;74.77;;;40.53;;
40695;SDS011;40425;51.102;17.208;2023-03-02T16:15:37;81.80;;;44.53;;
40695;SDS011;40425;51.102;17.208;2023-03-02T16:20:39;75.90;;;44.50;;
40695;SDS011;40425;51.102;17.208;2023-03-02T16:25:40;76.13;;;40.20;;
40695;SDS011;40425;51.102;17.208;2023-03-02T16:30:43;77.20;;;40.67;;
40695;SDS011;40425;51.102;17.208;2023-03-02T16:35:44;85.37;;;41.07;;
40695;SDS011;40425;51.102;17.208;2023-03-02T16:40:45;85.53;;;44.23;;
40695;SDS011;40425;51.102;17.208;2023-03-02T16:45:47;102.30;;;48.83;;
40695;SDS011;40425;51.102;17.208;2023-03-02T16:50:53;101.43;;;50.80;;
40695;SDS011;40425;51.102;17.208;2023-03-02T16:55:55;105.13;;;50.10;;
40695;SDS011;40425;51.102;17.208;2023-03-02T17:00:56;115.03;;;56.53;;
40695;SDS011;40425;51.102;17.208;2023-03-02T17:05:57;113.83;;;50.30;;
40695;SDS011;40425;51.102;17.208;2023-03-02T17:10:58;111.93;;;50.27;;
40695;SDS011;40425;51.102;17.208;2023-03-02T17:15:59;118.53;;;54.23;;
40695;SDS011;40425;51.102;17.208;2023-03-02T17:21:00;127.20;;;54.93;;
40695;SDS011;40425;51.102;17.208;2023-03-02T17:26:08;124.40;;;54.73;;
40695;SDS011;40425;51.102;17.208;2023-03-02T17:31:09;124.60;;;57.90;;
40695;SDS011;40425;51.102;17.208;2023-03-02T17:36:10;140.67;;;60.10;;
40695;SDS011;40425;51.102;17.208;2023-03-02T17:41:11;135.83;;;60.67;;
40695;SDS011;40425;51.102;17.208;2023-03-02T17:46:17;139.37;;;59.57;;
40695;SDS011;40425;51.102;17.208;2023-03-02T17:51:22;155.60;;;65.87;;
40695;SDS011;40425;51.102;17.208;2023-03-02T17:56:25;131.60;;;59.73;;
40695;SDS011;40425;51.102;17.208;2023-03-02T18:01:27;142.07;;;60.20;;
40695;SDS011;40425;51.102;17.208;2023-03-02T18:06:28;156.47;;;63.47;;
40695;SDS011;40425;51.102;17.208;2023-03-02T18:11:30;149.23;;;61.53;;
40695;SDS011;40425;51.102;17.208;2023-03-02T18:16:30;146.20;;;60.87;;
40695;SDS011;40425;51.102;17.208;2023-03-02T18:21:33;157.53;;;62.07;;
40695;SDS011;40425;51.102;17.208;2023-03-02T18:26:41;174.50;;;64.90;;
40695;SDS011;40425;51.102;17.208;2023-03-02T18:31:42;149.83;;;59.53;;
40695;SDS011;40425;51.102;17.208;2023-03-02T18:36:43;156.87;;;65.80;;
40695;SDS011;40425;51.102;17.208;2023-03-02T18:41:43;171.87;;;64.40;;
40695;SDS011;40425;51.102;17.208;2023-03-02T18:46:44;169.40;;;65.90;;
40695;SDS011;40425;51.102;17.208;2023-03-02T18:51:45;170.90;;;68.57;;
40695;SDS011;40425;51.102;17.208;2023-03-02T18:56:46;163.07;;;65.03;;
40695;SDS011;40425;51.102;17.208;2023-03-02T19:01:47;142.40;;;53.93;;
40695;SDS011;40425;51.102;17.208;2023-03-02T19:06:48;144.60;;;55.70;;
40695;SDS011;40425;51.102;17.208;2023-03-02T19:11:50;130.03;;;49.43;;
40695;SDS011;40425;51.102;17.208;2023-03-02T19:16:50;171.40;;;65.57;;
40695;SDS011;40425;51.102;17.208;2023-03-02T19:21:51;177.23;;;65.53;;
40695;SDS011;40425;51.102;17.208;2023-03-02T19:26:52;185.57;;;61.77;;
40695;SDS011;40425;51.102;17.208;2023-03-02T19:31:53;156.27;;;50.13;;
40695;SDS011;40425;51.102;17.208;2023-03-02T19:36:54;140.47;;;49.83;;
40695;SDS011;40425;51.102;17.208;2023-03-02T19:41:55;166.03;;;60.77;;
40695;SDS011;40425;51.102;17.208;2023-03-02T19:46:56;183.93;;;63.27;;
40695;SDS011;40425;51.102;17.208;2023-03-02T19:51:57;197.50;;;67.80;;
40695;SDS011;40425;51.102;17.208;2023-03-02T19:56:59;179.57;;;59.83;;
40695;SDS011;40425;51.102;17.208;2023-03-02T20:02:02;276.10;;;69.27;;
40695;SDS011;40425;51.102;17.208;2023-03-02T20:07:03;335.93;;;77.97;;
40695;SDS011;40425;51.102;17.208;2023-03-02T20:12:04;295.30;;;70.67;;
40695;SDS011;40425;51.102;17.208;2023-03-02T20:17:07;229.97;;;52.80;;
40695;SDS011;40425;51.102;17.208;2023-03-02T20:22:08;320.23;;;66.27;;
40695;SDS011;40425;51.102;17.208;2023-03-02T20:27:10;391.00;;;70.00;;
40695;SDS011;40425;51.102;17.208;2023-03-02T20:32:11;519.53;;;78.30;;
40695;SDS011;40425;51.102;17.208;2023-03-02T20:37:13;361.27;;;71.10;;
40695;SDS011;40425;51.102;17.208;2023-03-02T20:42:15;294.37;;;67.20;;
40695;SDS011;40425;51.102;17.208;2023-03-02T20:47:16;279.13;;;61.83;;
40695;SDS011;40425;51.102;17.208;2023-03-02T20:52:17;457.67;;;69.13;;
40695;SDS011;40425;51.102;17.208;2023-03-02T20:57:18;433.90;;;65.03;;
40695;SDS011;40425;51.102;17.208;2023-03-02T21:02:21;543.17;;;76.20;;
40695;SDS011;40425;51.102;17.208;2023-03-02T21:07:22;567.70;;;72.70;;
40695;SDS011;40425;51.102;17.208;2023-03-02T21:12:23;482.00;;;71.37;;
40695;SDS011;40425;51.102;17.208;2023-03-02T21:17:23;409.93;;;67.27;;
40695;SDS011;40425;51.102;17.208;2023-03-02T21:22:25;491.53;;;70.23;;
40695;SDS011;40425;51.102;17.208;2023-03-02T21:27:26;429.20;;;65.53;;
40695;SDS011;40425;51.102;17.208;2023-03-02T21:32:28;454.57;;;71.13;;
40695;SDS011;40425;51.102;17.208;2023-03-02T21:37:31;521.53;;;68.53;;
40695;SDS011;40425;51.102;17.208;2023-03-02T21:42:34;469.27;;;64.97;;
40695;SDS011;40425;51.102;17.208;2023-03-02T21:47:35;333.90;;;62.17;;
40695;SDS011;40425;51.102;17.208;2023-03-02T21:52:38;280.67;;;57.27;;
40695;SDS011;40425;51.102;17.208;2023-03-02T21:57:39;412.17;;;61.63;;
40695;SDS011;40425;51.102;17.208;2023-03-02T22:02:40;413.80;;;61.83;;
40695;SDS011;40425;51.102;17.208;2023-03-02T22:07:41;357.00;;;60.40;;
40695;SDS011;40425;51.102;17.208;2023-03-02T22:12:42;330.93;;;55.23;;
40695;SDS011;40425;51.102;17.208;2023-03-02T22:17:43;287.70;;;60.40;;
40695;SDS011;40425;51.102;17.208;2023-03-02T22:22:44;265.87;;;55.53;;
40695;SDS011;40425;51.102;17.208;2023-03-02T22:27:46;256.37;;;56.73;;
40695;SDS011;40425;51.102;17.208;2023-03-02T22:32:48;332.10;;;56.47;;
40695;SDS011;40425;51.102;17.208;2023-03-02T22:37:49;290.80;;;56.60;;
40695;SDS011;40425;51.102;17.208;2023-03-02T22:42:53;298.57;;;59.00;;
40695;SDS011;40425;51.102;17.208;2023-03-02T22:48:19;266.90;;;55.23;;
40695;SDS011;40425;51.102;17.208;2023-03-02T22:53:26;280.53;;;57.30;;
40695;SDS011;40425;51.102;17.208;2023-03-02T22:58:44;173.67;;;53.23;;
40695;SDS011;40425;51.102;17.208;2023-03-02T23:03:51;240.87;;;55.63;;
40695;SDS011;40425;51.102;17.208;2023-03-02T23:09:04;175.83;;;50.53;;
40695;SDS011;40425;51.102;17.208;2023-03-02T23:14:28;178.63;;;52.93;;
40695;SDS011;40425;51.102;17.208;2023-03-02T23:19:29;211.23;;;53.27;;
40695;SDS011;40425;51.102;17.208;2023-03-02T23:24:30;234.03;;;57.80;;
40695;SDS011;40425;51.102;17.208;2023-03-02T23:29:31;226.33;;;58.63;;
40695;SDS011;40425;51.102;17.208;2023-03-02T23:34:32;275.83;;;60.20;;
40695;SDS011;40425;51.102;17.208;2023-03-02T23:39:33;292.60;;;59.37;;
40695;SDS011;40425;51.102;17.208;2023-03-02T23:44:34;220.10;;;57.37;;
40695;SDS011;40425;51.102;17.208;2023-03-02T23:49:34;281.33;;;56.83;;
40695;SDS011;40425;51.102;17.208;2023-03-02T23:54:35;294.47;;;58.37;;
40695;SDS011;40425;51.102;17.208;2023-03-02T23:59:36;442.37;;;61.40;;
